Time;durP1;ratioP1;P1;durP2;ratioP2;P2;SDS_P1;SDS_P2;PMS_P1;PMS_P2;Temp;Humidity;BMP_temperature;BMP_pressure;BME280_temperature;BME280_humidity;BME280_pressure;Samples;Min_cycle;Max_cycle;Signal;HPM_P1;HPM_P2
2021/07/12 00:00:56;;;;;;;3.90;3.60;;;12.70;99.90;;;;;;5078535;28;20434;-79
2021/07/12 00:03:21;;;;;;;5.00;4.60;;;12.90;99.90;;;;;;5077784;28;20260;-79
2021/07/12 00:05:47;;;;;;;6.13;3.80;;;12.70;99.90;;;;;;5078723;28;20181;-80
2021/07/12 00:08:13;;;;;;;4.37;3.60;;;12.80;99.90;;;;;;5076913;28;20221;-79
2021/07/12 00:10:38;;;;;;;5.20;3.77;;;12.80;99.90;;;;;;5078168;28;20994;-79
2021/07/12 00:13:04;;;;;;;4.67;4.27;;;12.70;99.90;;;;;;5074749;28;20174;-79
2021/07/12 00:15:31;;;;;;;4.50;3.40;;;12.60;99.90;;;;;;5073629;28;20182;-78
2021/07/12 00:17:57;;;;;;;3.93;3.53;;;12.60;99.90;;;;;;5078568;28;20456;-78
2021/07/12 00:20:23;;;;;;;4.30;3.77;;;12.80;99.90;;;;;;5071048;28;20848;-79
2021/07/12 00:22:50;;;;;;;4.00;3.70;;;12.70;99.90;;;;;;5072603;28;20467;-78
2021/07/12 00:25:17;;;;;;;3.93;3.40;;;12.70;99.90;;;;;;5074690;28;20435;-79
2021/07/12 00:27:43;;;;;;;4.60;3.93;;;12.50;99.90;;;;;;5079986;28;20431;-78
2021/07/12 00:30:11;;;;;;;4.47;3.83;;;12.60;99.90;;;;;;5074479;28;20439;-78
2021/07/12 00:32:38;;;;;;;5.10;3.83;;;12.70;99.90;;;;;;5077079;28;20438;-79
2021/07/12 00:35:06;;;;;;;5.20;4.00;;;12.50;99.90;;;;;;5079045;28;20943;-78
2021/07/12 00:37:32;;;;;;;3.80;3.50;;;12.70;99.90;;;;;;5076533;28;20432;-78
2021/07/12 00:39:57;;;;;;;3.80;3.43;;;12.60;99.90;;;;;;5079942;28;20634;-78
2021/07/12 00:42:23;;;;;;;5.27;3.57;;;12.40;99.90;;;;;;5080834;28;20543;-78
2021/07/12 00:44:49;;;;;;;4.23;3.73;;;12.50;99.90;;;;;;5073606;28;20280;-78
2021/07/12 00:47:15;;;;;;;4.30;4.00;;;12.50;99.90;;;;;;5079275;28;20273;-78
2021/07/12 00:49:41;;;;;;;3.90;3.53;;;12.20;99.90;;;;;;5072481;28;20936;-79
2021/07/12 00:52:07;;;;;;;4.10;3.80;;;12.30;99.90;;;;;;5077055;28;20209;-79
2021/07/12 00:54:32;;;;;;;3.47;3.17;;;12.30;99.90;;;;;;5079268;28;20914;-78
2021/07/12 00:56:59;;;;;;;3.97;3.67;;;12.40;99.90;;;;;;5078513;28;20442;-79
2021/07/12 00:59:26;;;;;;;4.05;3.65;;;12.30;99.90;;;;;;5079388;28;20186;-79
2021/07/12 01:01:52;;;;;;;4.20;3.90;;;12.00;99.90;;;;;;5065849;28;20192;-79
2021/07/12 01:04:18;;;;;;;4.97;3.90;;;12.20;99.90;;;;;;5079718;28;20276;-78
2021/07/12 01:06:44;;;;;;;4.33;4.03;;;12.20;99.90;;;;;;5075810;28;20289;-79
2021/07/12 01:09:09;;;;;;;4.13;3.83;;;12.30;99.90;;;;;;5077730;28;21202;-79
2021/07/12 01:11:55;;;;;;;3.90;3.60;;;12.20;99.90;;;;;;5073356;28;20217;-79
2021/07/12 01:14:43;;;;;;;4.35;4.05;;;12.10;99.90;;;;;;5080021;28;20264;-79
2021/07/12 01:17:30;;;;;;;3.80;3.33;;;12.30;99.90;;;;;;5077587;28;20207;-80
2021/07/12 01:20:41;;;;;;;4.60;4.30;;;12.30;99.90;;;;;;5076266;28;20181;-79
2021/07/12 01:23:19;;;;;;;3.80;3.50;;;12.30;99.90;;;;;;5069156;28;20505;-80
2021/07/12 01:25:48;;;;;;;4.00;3.70;;;12.20;99.90;;;;;;5070771;28;20534;-80
2021/07/12 01:28:27;;;;;;;4.85;3.70;;;12.00;99.90;;;;;;5080034;28;20185;-80
2021/07/12 01:31:30;;;;;;;4.18;3.80;;;11.70;99.90;;;;;;5069609;28;20206;-80
2021/07/12 01:34:02;;;;;;;4.22;3.83;;;11.80;99.90;;;;;;5073680;28;20558;-80
2021/07/12 01:36:43;;;;;;;4.57;4.18;;;11.90;99.90;;;;;;5083382;28;20263;-80
2021/07/12 01:39:14;;;;;;;4.10;3.80;;;12.00;99.90;;;;;;5078527;28;20659;-80
2021/07/12 01:41:51;;;;;;;4.00;3.70;;;11.60;99.90;;;;;;5080270;28;20192;-80
2021/07/12 01:44:50;;;;;;;4.43;4.03;;;11.90;99.90;;;;;;5075052;28;20668;-80
2021/07/12 01:47:24;;;;;;;4.57;3.72;;;11.70;99.90;;;;;;5074774;28;20192;-80
2021/07/12 01:50:02;;;;;;;4.78;4.38;;;12.10;99.90;;;;;;5085878;28;20195;-80
2021/07/12 01:52:33;;;;;;;4.50;3.92;;;11.80;99.90;;;;;;5071994;28;20697;-80
2021/07/12 01:55:03;;;;;;;4.60;4.18;;;11.80;99.90;;;;;;5062739;28;20579;-80
2021/07/12 01:57:35;;;;;;;4.22;3.92;;;11.60;99.90;;;;;;5080063;28;20185;-80
2021/07/12 02:00:08;;;;;;;4.22;3.83;;;11.70;99.90;;;;;;5069830;28;20182;-80
2021/07/12 02:02:34;;;;;;;4.50;4.15;;;11.80;99.90;;;;;;5081087;28;20184;-80
2021/07/12 02:05:09;;;;;;;4.50;4.10;;;11.70;99.90;;;;;;5079432;28;20191;-80
2021/07/12 02:07:37;;;;;;;3.83;3.53;;;11.80;99.90;;;;;;5071973;28;20767;-79
2021/07/12 02:10:05;;;;;;;4.10;3.75;;;12.10;99.90;;;;;;5067042;28;20689;-80
2021/07/12 02:12:33;;;;;;;5.28;3.95;;;12.00;99.90;;;;;;5085087;28;20219;-80
2021/07/12 02:15:01;;;;;;;4.65;4.30;;;11.70;99.90;;;;;;5079620;28;20278;-80
2021/07/12 02:17:27;;;;;;;4.70;4.30;;;11.80;99.90;;;;;;5072930;28;20232;-80
2021/07/12 02:19:54;;;;;;;4.95;3.83;;;11.70;99.90;;;;;;5078487;28;20189;-80
2021/07/12 02:22:21;;;;;;;4.00;3.70;;;11.80;99.90;;;;;;5072064;28;20275;-80
2021/07/12 02:24:48;;;;;;;3.78;3.47;;;11.60;99.90;;;;;;5079488;28;20199;-80
2021/07/12 02:27:16;;;;;;;4.30;4.00;;;11.60;99.90;;;;;;5083062;28;20759;-80
2021/07/12 02:29:43;;;;;;;4.35;3.95;;;11.50;99.90;;;;;;5078899;28;20265;-80
2021/07/12 02:32:09;;;;;;;4.82;4.30;;;11.50;99.90;;;;;;5083106;28;20325;-80
2021/07/12 02:34:37;;;;;;;5.13;4.75;;;11.50;99.90;;;;;;5079077;28;20182;-81
2021/07/12 02:37:03;;;;;;;4.85;4.35;;;11.50;99.90;;;;;;5080355;28;20216;-80
2021/07/12 02:39:30;;;;;;;4.82;4.35;;;11.70;99.90;;;;;;5064047;28;20253;-80
2021/07/12 02:41:57;;;;;;;5.72;3.92;;;11.50;99.90;;;;;;5084944;28;20271;-80
2021/07/12 02:44:24;;;;;;;4.70;4.25;;;11.50;99.90;;;;;;5071105;28;20202;-80
2021/07/12 02:46:50;;;;;;;4.68;4.25;;;11.60;99.90;;;;;;5081293;28;20555;-80
2021/07/12 02:49:16;;;;;;;4.37;4.07;;;11.60;99.90;;;;;;5078234;28;20190;-80
2021/07/12 02:51:49;;;;;;;4.30;3.90;;;11.50;99.90;;;;;;5079183;28;20241;-80
2021/07/12 02:54:19;;;;;;;4.32;3.92;;;11.50;99.90;;;;;;5064556;28;20196;-80
2021/07/12 02:56:45;;;;;;;5.20;4.70;;;11.50;99.90;;;;;;5080036;28;20277;-80
2021/07/12 02:59:11;;;;;;;5.28;4.00;;;11.50;99.90;;;;;;5080045;28;20201;-81
2021/07/12 03:01:36;;;;;;;5.00;4.60;;;11.50;99.90;;;;;;5081266;28;20195;-81
2021/07/12 03:04:02;;;;;;;5.00;4.30;;;11.50;99.90;;;;;;5065050;28;20327;-81
2021/07/12 03:06:30;;;;;;;4.30;3.90;;;11.50;99.90;;;;;;5077803;28;20276;-81
2021/07/12 03:09:03;;;;;;;4.32;3.92;;;11.40;99.90;;;;;;5079238;28;20714;-81
2021/07/12 03:11:58;;;;;;;4.60;4.22;;;11.60;99.90;;;;;;5070315;28;20221;-81
2021/07/12 03:14:47;;;;;;;4.60;4.20;;;11.20;99.90;;;;;;5064418;28;20633;-82
2021/07/12 03:17:16;;;;;;;5.20;4.47;;;11.70;99.90;;;;;;5079898;28;20189;-82
2021/07/12 03:19:45;;;;;;;4.80;4.40;;;11.40;99.90;;;;;;5071277;28;20195;-81
2021/07/12 03:22:12;;;;;;;5.03;4.43;;;11.50;99.90;;;;;;5079308;28;20200;-82
2021/07/12 03:24:40;;;;;;;4.38;3.90;;;11.50;99.90;;;;;;5065038;28;20982;-82
2021/07/12 03:27:10;;;;;;;4.35;4.05;;;11.60;99.90;;;;;;5078195;28;20190;-82
2021/07/12 03:29:37;;;;;;;4.53;4.15;;;11.30;99.90;;;;;;5078579;28;20182;-81
2021/07/12 03:32:04;;;;;;;4.13;3.80;;;11.40;99.90;;;;;;5081226;28;20297;-81
2021/07/12 03:34:31;;;;;;;4.70;4.30;;;11.20;99.90;;;;;;5073188;28;20599;-81
2021/07/12 03:36:59;;;;;;;5.28;4.55;;;11.50;99.90;;;;;;5072927;28;20187;-81
2021/07/12 03:39:26;;;;;;;4.50;4.10;;;11.50;99.90;;;;;;5077302;28;20199;-81
2021/07/12 03:41:52;;;;;;;6.47;3.80;;;11.20;99.90;;;;;;5077512;28;20198;-81
2021/07/12 03:44:18;;;;;;;4.95;4.50;;;11.40;99.90;;;;;;5073204;28;20189;-81
2021/07/12 03:46:44;;;;;;;4.47;4.05;;;11.30;99.90;;;;;;5079703;28;20201;-81
2021/07/12 03:49:12;;;;;;;4.43;4.10;;;11.50;99.90;;;;;;5079604;28;20189;-81
2021/07/12 03:51:38;;;;;;;4.57;4.18;;;11.20;99.90;;;;;;5079088;28;20710;-81
2021/07/12 03:54:04;;;;;;;3.90;3.60;;;11.30;99.90;;;;;;5083439;28;20203;-81
2021/07/12 03:56:30;;;;;;;4.40;4.00;;;11.20;99.90;;;;;;5062540;28;20195;-81
2021/07/12 03:58:56;;;;;;;5.75;4.43;;;11.20;99.90;;;;;;5075674;28;20497;-81
2021/07/12 04:01:22;;;;;;;4.70;4.30;;;11.40;99.90;;;;;;5064524;28;20198;-81
2021/07/12 04:03:49;;;;;;;4.27;3.97;;;11.20;99.90;;;;;;5076699;28;20641;-80
2021/07/12 04:06:15;;;;;;;4.22;3.88;;;11.40;99.90;;;;;;5075702;28;20795;-80
2021/07/12 04:08:40;;;;;;;4.43;4.03;;;11.50;99.90;;;;;;5075991;28;20233;-80
2021/07/12 04:11:06;;;;;;;5.33;4.30;;;11.50;99.90;;;;;;5074827;28;21010;-80
2021/07/12 04:13:31;;;;;;;4.97;4.43;;;11.50;99.90;;;;;;5078466;28;20178;-80
2021/07/12 04:15:57;;;;;;;4.20;3.90;;;11.30;99.90;;;;;;5074017;28;20181;-80
2021/07/12 04:18:23;;;;;;;5.10;4.60;;;11.50;99.90;;;;;;5070326;28;20182;-80
2021/07/12 04:20:48;;;;;;;4.73;4.33;;;11.50;99.90;;;;;;5075225;28;20268;-80
2021/07/12 04:23:14;;;;;;;5.97;4.23;;;11.40;99.90;;;;;;5076209;28;20637;-80
2021/07/12 04:25:40;;;;;;;5.05;4.57;;;11.50;99.90;;;;;;5074675;28;20190;-80
2021/07/12 04:28:06;;;;;;;4.90;4.07;;;11.50;99.90;;;;;;5072607;28;20211;-80
2021/07/12 04:30:31;;;;;;;5.60;5.10;;;11.30;99.90;;;;;;5080343;28;20703;-79
2021/07/12 04:32:57;;;;;;;4.50;4.10;;;11.50;99.90;;;;;;5071547;28;20254;-80
2021/07/12 04:35:22;;;;;;;6.57;4.30;;;11.60;99.90;;;;;;5082678;28;20178;-80
2021/07/12 04:37:48;;;;;;;5.50;5.00;;;11.60;99.90;;;;;;5079471;28;20489;-80
2021/07/12 04:40:14;;;;;;;4.70;4.20;;;11.50;99.90;;;;;;5075657;28;20203;-80
2021/07/12 04:42:40;;;;;;;4.70;4.20;;;11.60;99.90;;;;;;5068841;28;20621;-80
2021/07/12 04:45:06;;;;;;;4.90;4.50;;;11.80;99.90;;;;;;5076831;28;20226;-80
2021/07/12 04:47:32;;;;;;;5.03;4.63;;;11.90;99.90;;;;;;5075809;28;20216;-80
2021/07/12 04:49:57;;;;;;;5.13;4.63;;;11.90;99.90;;;;;;5075843;28;20435;-80
2021/07/12 04:52:23;;;;;;;5.27;4.77;;;11.80;99.90;;;;;;5075002;28;20470;-80
2021/07/12 04:54:49;;;;;;;5.00;4.50;;;11.90;99.90;;;;;;5076434;28;20281;-80
2021/07/12 04:57:15;;;;;;;5.37;4.90;;;11.90;99.90;;;;;;5075425;28;20538;-80
2021/07/12 04:59:40;;;;;;;5.70;5.20;;;12.10;99.90;;;;;;5080448;28;20434;-80
2021/07/12 05:02:07;;;;;;;5.10;4.70;;;12.50;99.90;;;;;;5068077;28;20196;-81
2021/07/12 05:04:34;;;;;;;5.35;4.85;;;12.60;99.90;;;;;;5076265;28;20264;-81
2021/07/12 05:07:00;;;;;;;5.28;4.88;;;12.60;99.90;;;;;;5063141;28;20198;-83
2021/07/12 05:09:26;;;;;;;5.80;5.33;;;12.70;99.90;;;;;;5073017;28;20224;-85
2021/07/12 05:11:52;;;;;;;5.00;4.60;;;12.70;99.90;;;;;;5076793;28;20483;-80
2021/07/12 05:14:19;;;;;;;5.00;4.50;;;12.90;99.90;;;;;;5079310;28;20234;-80
2021/07/12 05:16:44;;;;;;;5.40;4.90;;;13.00;99.90;;;;;;5064589;28;20544;-82
2021/07/12 05:19:13;;;;;;;5.57;5.07;;;13.10;99.90;;;;;;5075865;28;20276;-82
2021/07/12 05:21:39;;;;;;;5.20;4.70;;;13.30;99.90;;;;;;5076285;28;20190;-82
2021/07/12 05:24:05;;;;;;;4.80;4.40;;;13.70;99.90;;;;;;5074333;28;20522;-82
2021/07/12 05:26:30;;;;;;;5.80;5.40;;;14.00;99.90;;;;;;5078932;28;20180;-82
2021/07/12 05:28:56;;;;;;;5.90;4.97;;;14.20;99.90;;;;;;5076372;28;20200;-82
2021/07/12 05:31:21;;;;;;;5.20;4.30;;;15.10;99.90;;;;;;5076043;28;20201;-82
2021/07/12 05:33:47;;;;;;;4.90;4.40;;;15.10;99.90;;;;;;5076015;28;20235;-82
2021/07/12 05:36:12;;;;;;;5.30;4.73;;;15.70;99.90;;;;;;5077702;28;20643;-81
2021/07/12 05:38:38;;;;;;;5.47;4.70;;;16.40;99.90;;;;;;5079217;28;20177;-82
2021/07/12 05:41:03;;;;;;;5.40;5.00;;;16.60;99.90;;;;;;5079726;28;20174;-81
2021/07/12 05:43:29;;;;;;;5.13;4.70;;;17.40;99.90;;;;;;5073878;28;20659;-80
2021/07/12 05:45:54;;;;;;;4.43;4.13;;;18.00;99.90;;;;;;5077839;28;20417;-82
2021/07/12 05:48:20;;;;;;;4.50;4.10;;;18.40;99.90;;;;;;5072038;28;20192;-82
2021/07/12 05:50:45;;;;;;;4.20;3.90;;;19.30;99.90;;;;;;5077280;28;20207;-81
2021/07/12 05:53:14;;;;;;;4.60;4.30;;;20.00;99.90;;;;;;5076155;28;20556;-81
2021/07/12 05:55:40;;;;;;;3.83;3.50;;;20.60;99.90;;;;;;5080213;28;20840;-81
2021/07/12 05:58:05;;;;;;;4.70;4.23;;;21.10;99.90;;;;;;5078905;28;20439;-81
2021/07/12 06:00:31;;;;;;;4.80;4.40;;;21.60;99.90;;;;;;5066725;28;20755;-80
2021/07/12 06:02:56;;;;;;;3.40;3.20;;;22.00;93.80;;;;;;5076513;28;20657;-81
2021/07/12 06:05:22;;;;;;;3.90;3.50;;;22.20;93.80;;;;;;5083133;28;20268;-81
2021/07/12 06:07:47;;;;;;;4.23;3.80;;;22.40;92.40;;;;;;5080144;28;20302;-80
2021/07/12 06:10:13;;;;;;;4.30;4.00;;;22.40;88.60;;;;;;5083966;28;20213;-81
2021/07/12 06:12:40;;;;;;;3.60;3.37;;;23.10;89.30;;;;;;5078135;28;20579;-81
2021/07/12 06:15:07;;;;;;;3.73;3.43;;;23.30;86.40;;;;;;5087979;28;20433;-81
2021/07/12 06:17:33;;;;;;;3.40;3.20;;;23.80;82.00;;;;;;5071951;28;20523;-80
2021/07/12 06:19:59;;;;;;;3.70;3.40;;;23.90;82.10;;;;;;5077014;28;20872;-80
2021/07/12 06:22:24;;;;;;;4.43;4.00;;;24.10;78.80;;;;;;5073098;28;20225;-81
2021/07/12 06:24:50;;;;;;;3.93;3.63;;;24.40;76.50;;;;;;5078948;28;20225;-80
2021/07/12 06:27:16;;;;;;;4.23;3.87;;;24.60;71.80;;;;;;5075689;28;20189;-80
2021/07/12 06:29:42;;;;;;;4.13;3.83;;;24.90;71.40;;;;;;5070457;28;20664;-80
2021/07/12 06:32:08;;;;;;;5.07;4.40;;;25.10;69.60;;;;;;5078947;28;20472;-81
2021/07/12 06:34:33;;;;;;;4.50;4.13;;;24.90;70.80;;;;;;5069719;28;20451;-81
2021/07/12 06:36:59;;;;;;;4.63;4.33;;;25.00;70.80;;;;;;5069328;28;20683;-80
2021/07/12 06:39:25;;;;;;;4.10;3.80;;;24.60;70.70;;;;;;5077544;28;20186;-78
2021/07/12 06:41:50;;;;;;;4.40;3.80;;;24.80;70.60;;;;;;5071278;28;20210;-78
2021/07/12 06:44:16;;;;;;;3.83;3.63;;;24.40;69.00;;;;;;5070306;28;20218;-78
2021/07/12 06:46:41;;;;;;;3.80;3.50;;;24.80;69.10;;;;;;5069046;28;20258;-79
2021/07/12 06:49:07;;;;;;;3.93;3.53;;;24.50;69.60;;;;;;5075456;28;20659;-79
2021/07/12 06:51:32;;;;;;;3.70;3.50;;;24.50;70.40;;;;;;5069747;28;20709;-78
2021/07/12 06:54:00;;;;;;;3.63;3.33;;;24.80;70.60;;;;;;5069924;28;20202;-79
2021/07/12 06:56:26;;;;;;;4.10;3.80;;;24.50;71.40;;;;;;5072046;28;20664;-78
2021/07/12 06:58:51;;;;;;;5.20;3.37;;;24.80;71.50;;;;;;5062252;28;20429;-79
2021/07/12 07:01:17;;;;;;;3.33;3.10;;;24.60;71.50;;;;;;5073141;28;21031;-79
2021/07/12 07:03:42;;;;;;;3.47;3.17;;;24.30;70.20;;;;;;5074197;28;20552;-79
2021/07/12 07:06:08;;;;;;;4.33;4.03;;;24.60;71.20;;;;;;5076302;28;20202;-77
2021/07/12 07:08:34;;;;;;;4.00;3.80;;;24.10;68.40;;;;;;5072691;28;20692;-79
2021/07/12 07:11:00;;;;;;;4.00;3.80;;;24.10;70.40;;;;;;5073034;28;20292;-78
2021/07/12 07:13:25;;;;;;;4.07;3.77;;;23.90;70.10;;;;;;5069650;28;20329;-77
2021/07/12 07:15:51;;;;;;;4.90;3.60;;;23.70;70.20;;;;;;5070975;28;20579;-77
2021/07/12 07:18:17;;;;;;;4.60;4.23;;;23.30;72.20;;;;;;5075614;28;20175;-79
2021/07/12 07:20:43;;;;;;;4.30;3.70;;;22.90;71.50;;;;;;5071179;28;20269;-79
2021/07/12 07:23:09;;;;;;;4.60;4.30;;;22.50;73.60;;;;;;5069517;28;20202;-77
2021/07/12 07:25:34;;;;;;;5.67;3.70;;;22.60;75.30;;;;;;5070105;28;20468;-79
2021/07/12 07:28:01;;;;;;;4.27;3.87;;;22.10;76.20;;;;;;5070287;28;20276;-85
2021/07/12 07:30:27;;;;;;;3.87;3.57;;;22.20;78.60;;;;;;5069860;28;20193;-77
2021/07/12 07:32:52;;;;;;;5.40;4.90;;;21.90;79.70;;;;;;5071447;28;20938;-81
2021/07/12 07:35:18;;;;;;;5.17;4.60;;;22.10;79.80;;;;;;5072009;28;20589;-79
2021/07/12 07:37:46;;;;;;;5.87;5.33;;;21.70;80.20;;;;;;5070192;28;20186;-80
2021/07/12 07:40:13;;;;;;;5.03;4.53;;;21.80;80.90;;;;;;5074725;28;20216;-78
2021/07/12 07:42:39;;;;;;;6.23;5.03;;;21.40;82.20;;;;;;5071876;28;20820;-80
2021/07/12 07:45:07;;;;;;;5.20;4.47;;;21.70;83.90;;;;;;5069291;28;20434;-77
2021/07/12 07:47:33;;;;;;;3.60;3.20;;;21.70;83.30;;;;;;5069184;28;20194;-80
2021/07/12 07:49:59;;;;;;;3.47;3.17;;;21.60;84.80;;;;;;5069156;28;20519;-78
2021/07/12 07:52:24;;;;;;;4.30;3.50;;;21.60;83.30;;;;;;5071486;28;20482;-83
2021/07/12 07:54:50;;;;;;;4.60;3.10;;;21.70;83.00;;;;;;5074072;28;20194;-82
2021/07/12 07:57:16;;;;;;;3.00;2.70;;;21.90;84.00;;;;;;5077277;28;20200;-82
2021/07/12 07:59:42;;;;;;;3.27;2.97;;;22.20;84.00;;;;;;5073915;28;20810;-78
2021/07/12 08:02:08;;;;;;;4.10;3.80;;;22.40;78.60;;;;;;5070135;28;20531;-81
2021/07/12 08:04:33;;;;;;;3.47;3.20;;;22.80;79.00;;;;;;5070672;28;20764;-76
2021/07/12 08:06:59;;;;;;;2.93;2.80;;;23.70;77.50;;;;;;5068865;28;20194;-82
2021/07/12 08:09:24;;;;;;;3.77;2.97;;;24.40;72.30;;;;;;5071541;28;20307;-81
2021/07/12 08:11:51;;;;;;;3.17;2.97;;;24.70;71.50;;;;;;5071561;28;20214;-81
2021/07/12 08:14:17;;;;;;;3.00;2.80;;;25.30;66.20;;;;;;5075295;28;20192;-81
2021/07/12 08:16:43;;;;;;;2.90;2.80;;;25.90;62.90;;;;;;5068244;28;20566;-82
2021/07/12 08:19:08;;;;;;;3.37;2.90;;;26.10;62.50;;;;;;5071983;28;20435;-81
2021/07/12 08:21:34;;;;;;;3.17;2.87;;;26.80;58.80;;;;;;5077041;28;20208;-78
2021/07/12 08:24:00;;;;;;;2.90;2.70;;;27.40;59.10;;;;;;5074736;28;20193;-78
2021/07/12 08:26:25;;;;;;;2.70;2.50;;;28.00;55.00;;;;;;5069466;28;20468;-78
2021/07/12 08:28:51;;;;;;;2.80;2.60;;;28.90;54.90;;;;;;5069793;28;20179;-83
2021/07/12 08:31:17;;;;;;;3.20;3.00;;;29.00;52.60;;;;;;5070353;28;20211;-76
2021/07/12 08:33:43;;;;;;;2.60;2.40;;;29.50;51.90;;;;;;5075662;28;20245;-81
2021/07/12 08:36:09;;;;;;;3.40;3.20;;;30.10;50.50;;;;;;5068931;28;20220;-83
2021/07/12 08:38:35;;;;;;;2.60;2.40;;;30.10;48.40;;;;;;5074420;28;20471;-80
2021/07/12 08:41:01;;;;;;;2.63;2.53;;;30.10;49.70;;;;;;5072169;28;20196;-79
2021/07/12 08:43:27;;;;;;;3.97;2.10;;;30.00;48.40;;;;;;5071674;28;20245;-80
2021/07/12 08:45:53;;;;;;;2.77;2.57;;;29.80;49.20;;;;;;5071088;28;20528;-80
2021/07/12 08:48:18;;;;;;;2.50;2.30;;;30.40;47.50;;;;;;5069021;28;20981;-81
2021/07/12 08:50:45;;;;;;;2.60;2.40;;;30.60;47.60;;;;;;5068074;28;20250;-83
2021/07/12 08:53:15;;;;;;;2.80;2.50;;;31.20;47.20;;;;;;5074376;28;20261;-82
2021/07/12 08:55:45;;;;;;;2.60;2.30;;;31.10;46.70;;;;;;5069560;28;20912;-84
2021/07/12 08:58:21;;;;;;;2.60;2.10;;;32.00;43.70;;;;;;5072994;28;20478;-85
2021/07/12 09:00:50;;;;;;;1.97;1.87;;;32.70;41.80;;;;;;5070039;28;20518;-79
2021/07/12 09:03:50;;;;;;;2.10;1.90;;;33.50;41.60;;;;;;5069874;28;20518;-83
2021/07/12 09:06:18;;;;;;;2.30;2.20;;;34.20;40.40;;;;;;5058497;28;20454;-83
2021/07/12 09:08:48;;;;;;;2.17;2.07;;;34.60;38.50;;;;;;5073408;28;20483;-78
2021/07/12 09:11:24;;;;;;;1.97;1.87;;;35.30;36.80;;;;;;5069134;28;20482;-78
2021/07/12 09:13:52;;;;;;;2.40;2.10;;;36.00;36.70;;;;;;5066327;28;20768;-79
2021/07/12 09:16:42;;;;;;;2.40;2.30;;;35.90;35.10;;;;;;5066565;28;20485;-78
2021/07/12 09:19:09;;;;;;;2.23;2.07;;;36.20;34.30;;;;;;5080702;28;20426;-79
2021/07/12 09:21:36;;;;;;;2.87;2.57;;;36.10;35.20;;;;;;5069210;28;20502;-77
2021/07/12 09:24:23;;;;;;;2.37;2.17;;;36.00;35.10;;;;;;5072057;28;20436;-79
2021/07/12 09:26:55;;;;;;;2.60;2.40;;;36.50;35.20;;;;;;5067735;28;20443;-76
2021/07/12 09:29:41;;;;;;;2.10;2.00;;;35.50;34.10;;;;;;5068254;28;20439;-80
2021/07/12 09:32:09;;;;;;;2.20;2.10;;;36.20;33.90;;;;;;5075187;28;20856;-79
2021/07/12 09:34:36;;;;;;;1.93;1.83;;;36.90;32.90;;;;;;5073756;28;20468;-78
2021/07/12 09:37:02;;;;;;;2.10;1.90;;;37.00;32.70;;;;;;5074490;28;20432;-78
2021/07/12 09:39:32;;;;;;;2.40;1.87;;;37.70;32.10;;;;;;5075391;28;20475;-78
2021/07/12 09:42:06;;;;;;;2.40;2.17;;;38.20;30.50;;;;;;5073303;28;20428;-82
2021/07/12 09:44:33;;;;;;;2.50;2.23;;;38.20;30.60;;;;;;5076032;28;20511;-80
2021/07/12 09:47:05;;;;;;;2.30;2.10;;;38.00;30.30;;;;;;5071336;28;20972;-81
2021/07/12 09:49:31;;;;;;;1.97;1.87;;;38.60;29.50;;;;;;5072435;28;20424;-80
2021/07/12 09:51:59;;;;;;;1.97;1.87;;;38.20;29.70;;;;;;5073529;28;20786;-81
2021/07/12 09:54:29;;;;;;;1.70;1.60;;;38.50;30.20;;;;;;5078042;28;20375;-80
2021/07/12 09:56:56;;;;;;;1.80;1.70;;;38.70;29.20;;;;;;5072597;28;20439;-78
2021/07/12 09:59:22;;;;;;;2.20;2.10;;;37.90;29.50;;;;;;5071797;28;20735;-77
2021/07/12 10:01:54;;;;;;;2.30;2.20;;;37.60;31.10;;;;;;5071595;28;20444;-77
2021/07/12 10:04:22;;;;;;;2.10;2.00;;;36.50;32.40;;;;;;5076171;28;20434;-79
2021/07/12 10:06:50;;;;;;;2.30;1.90;;;36.90;33.50;;;;;;5072947;28;20670;-81
2021/07/12 10:09:17;;;;;;;2.10;2.00;;;37.90;31.10;;;;;;5082241;28;20562;-77
2021/07/12 10:11:43;;;;;;;2.20;2.07;;;38.50;29.00;;;;;;5072174;28;20809;-78
2021/07/12 10:14:09;;;;;;;1.77;1.67;;;37.70;28.80;;;;;;5071409;28;20566;-77
2021/07/12 10:16:35;;;;;;;2.43;2.23;;;37.80;29.90;;;;;;5071146;28;20182;-78
2021/07/12 10:19:01;;;;;;;2.20;2.00;;;37.00;30.00;;;;;;5075959;28;20431;-82
2021/07/12 10:21:44;;;;;;;2.50;2.30;;;36.30;30.70;;;;;;5076706;28;20193;-78
2021/07/12 10:24:10;;;;;;;2.37;2.17;;;35.60;32.60;;;;;;5078567;28;20484;-79
2021/07/12 10:26:42;;;;;;;1.90;1.80;;;35.10;33.30;;;;;;5072833;28;20556;-80
2021/07/12 10:29:17;;;;;;;2.20;2.10;;;34.40;34.40;;;;;;5073019;28;20212;-79
2021/07/12 10:32:09;;;;;;;2.17;2.07;;;34.20;35.90;;;;;;5074050;28;20977;-79
2021/07/12 10:34:37;;;;;;;2.10;2.00;;;34.10;35.50;;;;;;5072909;28;20431;-83
2021/07/12 10:37:07;;;;;;;2.07;1.97;;;33.90;36.20;;;;;;5074691;28;20424;-77
2021/07/12 10:40:15;;;;;;;2.30;2.20;;;33.60;36.30;;;;;;5073152;28;20443;-76
2021/07/12 10:42:44;;;;;;;2.80;2.60;;;33.00;36.70;;;;;;5055650;28;20511;-77
2021/07/12 10:45:27;;;;;;;2.73;2.53;;;32.80;37.70;;;;;;5069987;28;20454;-79
2021/07/12 10:48:04;;;;;;;2.03;1.93;;;31.90;39.00;;;;;;5067188;28;20431;-76
2021/07/12 10:50:40;;;;;;;2.23;2.13;;;31.60;39.90;;;;;;5072638;28;20498;-80
2021/07/12 10:53:14;;;;;;;2.20;2.10;;;31.00;40.40;;;;;;5081031;28;20434;-79
2021/07/12 10:56:05;;;;;;;2.80;1.93;;;31.10;40.20;;;;;;5069929;28;20576;-76
2021/07/12 10:58:30;;;;;;;2.77;2.53;;;31.00;40.00;;;;;;5071317;28;20522;-77
2021/07/12 11:01:01;;;;;;;1.90;1.80;;;31.00;40.70;;;;;;5070234;28;20530;-78
2021/07/12 11:03:42;;;;;;;2.20;2.03;;;30.90;40.00;;;;;;5072373;28;20189;-76
2021/07/12 11:06:16;;;;;;;2.27;2.17;;;30.60;40.60;;;;;;5065170;28;20529;-81
2021/07/12 11:08:51;;;;;;;2.40;2.20;;;30.70;41.70;;;;;;5069314;28;20482;-80
2021/07/12 11:11:20;;;;;;;1.93;1.83;;;31.60;41.10;;;;;;5063478;28;20709;-82
2021/07/12 11:14:02;;;;;;;2.57;2.43;;;32.60;40.10;;;;;;5069524;28;20514;-81
2021/07/12 11:16:47;;;;;;;2.40;2.20;;;33.70;37.60;;;;;;5063381;28;20845;-78
2021/07/12 11:19:31;;;;;;;2.20;2.10;;;34.70;35.40;;;;;;5069432;28;20430;-77
2021/07/12 11:22:15;;;;;;;2.10;1.87;;;35.40;35.20;;;;;;5068799;28;20441;-81
2021/07/12 11:25:02;;;;;;;1.90;1.80;;;36.40;33.50;;;;;;5069395;28;20843;-81
2021/07/12 11:27:42;;;;;;;2.30;2.20;;;37.10;32.70;;;;;;5062758;28;20440;-82
2021/07/12 11:30:27;;;;;;;2.03;1.93;;;38.20;31.40;;;;;;5068651;28;20446;-82
2021/07/12 11:32:53;;;;;;;2.13;2.03;;;39.30;28.80;;;;;;5069449;28;20476;-81
2021/07/12 11:35:19;;;;;;;2.37;2.17;;;39.30;28.90;;;;;;5068307;28;20438;-83
2021/07/12 11:37:44;;;;;;;2.27;2.07;;;40.00;28.70;;;;;;5075374;28;20255;-82
2021/07/12 11:40:10;;;;;;;2.10;2.00;;;40.60;28.00;;;;;;5069166;28;20470;-82
2021/07/12 11:42:39;;;;;;;1.77;1.67;;;40.90;27.10;;;;;;5068832;28;20217;-79
2021/07/12 11:45:13;;;;;;;1.80;1.70;;;40.40;27.40;;;;;;5068640;28;20480;-77
2021/07/12 11:47:47;;;;;;;2.00;1.90;;;40.20;27.40;;;;;;5061392;28;20430;-83
2021/07/12 11:50:19;;;;;;;2.27;2.07;;;40.30;28.20;;;;;;5068736;28;20498;-80
2021/07/12 11:52:47;;;;;;;2.70;2.50;;;39.60;27.80;;;;;;5062142;28;20463;-79
2021/07/12 11:55:26;;;;;;;2.30;2.20;;;39.40;28.50;;;;;;5068261;28;20428;-79
2021/07/12 11:57:56;;;;;;;2.33;2.23;;;38.80;28.00;;;;;;5062434;28;20424;-80
2021/07/12 12:00:47;;;;;;;2.90;2.20;;;38.40;29.50;;;;;;5068575;28;20455;-81
2021/07/12 12:03:14;;;;;;;2.10;2.00;;;38.80;29.20;;;;;;5064647;28;20439;-78
2021/07/12 12:05:43;;;;;;;3.17;2.93;;;38.90;29.00;;;;;;5067908;28;20423;-79
2021/07/12 12:08:14;;;;;;;2.33;2.20;;;39.00;28.80;;;;;;5068053;28;20514;-83
2021/07/12 12:10:40;;;;;;;2.70;2.50;;;40.00;27.40;;;;;;5067916;28;20449;-84
2021/07/12 12:13:18;;;;;;;2.30;2.10;;;41.20;26.40;;;;;;5068500;28;20995;-83
2021/07/12 12:15:51;;;;;;;2.30;2.10;;;42.20;24.20;;;;;;5067438;28;20455;-79
2021/07/12 12:18:23;;;;;;;1.90;1.80;;;43.00;24.00;;;;;;5075467;28;20518;-81
2021/07/12 12:20:51;;;;;;;2.20;2.10;;;43.70;22.90;;;;;;5073796;28;20436;-79
2021/07/12 12:23:25;;;;;;;1.97;1.87;;;44.20;22.30;;;;;;5068565;28;20458;-83
2021/07/12 12:25:53;;;;;;;2.43;2.10;;;44.20;22.10;;;;;;5068310;28;20954;-80
2021/07/12 12:28:24;;;;;;;1.83;1.73;;;43.80;22.50;;;;;;5067014;28;20446;-75
2021/07/12 12:30:50;;;;;;;2.20;2.00;;;43.20;23.20;;;;;;5058362;28;20428;-78
2021/07/12 12:33:16;;;;;;;2.47;2.27;;;42.70;23.40;;;;;;5067800;28;20459;-81
2021/07/12 12:35:43;;;;;;;1.87;1.77;;;42.60;23.70;;;;;;5074484;28;20463;-83
2021/07/12 12:38:16;;;;;;;1.70;1.60;;;43.10;24.30;;;;;;5061636;28;20182;-80
2021/07/12 12:40:44;;;;;;;1.93;1.83;;;43.20;23.10;;;;;;5070836;28;20466;-82
2021/07/12 12:43:14;;;;;;;2.20;2.10;;;43.00;23.90;;;;;;5061805;28;20432;-84
2021/07/12 12:45:51;;;;;;;1.67;1.57;;;43.60;23.50;;;;;;5068409;28;20800;-83
2021/07/12 12:48:40;;;;;;;2.30;2.20;;;44.30;23.90;;;;;;5059588;28;20424;-84
2021/07/12 12:51:24;;;;;;;2.47;2.10;;;44.80;21.90;;;;;;5073715;28;20467;-79
2021/07/12 12:54:16;;;;;;;2.93;1.70;;;44.80;21.30;;;;;;5071033;28;20447;-81
2021/07/12 12:56:47;;;;;;;2.10;1.90;;;44.40;22.00;;;;;;5061261;28;20446;-79
2021/07/12 12:59:13;;;;;;;2.43;2.20;;;44.30;21.80;;;;;;5067029;28;20451;-79